sensor_id;sensor_type;location;lat;lon;timestamp;P1;durP1;ratioP1;P2;durP2;ratioP2
34405;SDS011;20658;45.630;8.886;2022-07-22T00:00:26;22.15;;;11.23;;
34405;SDS011;20658;45.630;8.886;2022-07-22T00:03:00;21.30;;;11.35;;
34405;SDS011;20658;45.630;8.886;2022-07-22T00:05:35;18.83;;;10.48;;
34405;SDS011;20658;45.630;8.886;2022-07-22T00:08:08;20.23;;;10.68;;
34405;SDS011;20658;45.630;8.886;2022-07-22T00:10:42;16.83;;;10.20;;
34405;SDS011;20658;45.630;8.886;2022-07-22T00:13:15;23.90;;;11.68;;
34405;SDS011;20658;45.630;8.886;2022-07-22T00:15:49;20.83;;;10.85;;
34405;SDS011;20658;45.630;8.886;2022-07-22T00:18:22;17.77;;;10.63;;
34405;SDS011;20658;45.630;8.886;2022-07-22T00:20:57;22.00;;;11.70;;
34405;SDS011;20658;45.630;8.886;2022-07-22T00:23:31;22.00;;;10.85;;
34405;SDS011;20658;45.630;8.886;2022-07-22T00:26:04;24.10;;;11.90;;
34405;SDS011;20658;45.630;8.886;2022-07-22T00:28:38;20.30;;;11.50;;
34405;SDS011;20658;45.630;8.886;2022-07-22T00:31:11;20.90;;;10.52;;
34405;SDS011;20658;45.630;8.886;2022-07-22T00:33:44;22.08;;;10.90;;
34405;SDS011;20658;45.630;8.886;2022-07-22T00:36:19;23.60;;;11.27;;
34405;SDS011;20658;45.630;8.886;2022-07-22T00:38:53;22.85;;;11.65;;
34405;SDS011;20658;45.630;8.886;2022-07-22T00:41:26;20.08;;;11.27;;
34405;SDS011;20658;45.630;8.886;2022-07-22T00:44:00;17.52;;;10.98;;
34405;SDS011;20658;45.630;8.886;2022-07-22T00:46:37;22.33;;;11.45;;
34405;SDS011;20658;45.630;8.886;2022-07-22T00:49:10;24.77;;;10.90;;
34405;SDS011;20658;45.630;8.886;2022-07-22T00:51:46;23.08;;;11.15;;
34405;SDS011;20658;45.630;8.886;2022-07-22T00:54:20;20.58;;;10.35;;
34405;SDS011;20658;45.630;8.886;2022-07-22T00:56:55;17.38;;;10.45;;
34405;SDS011;20658;45.630;8.886;2022-07-22T00:59:28;19.73;;;11.10;;
34405;SDS011;20658;45.630;8.886;2022-07-22T01:02:02;25.75;;;10.10;;
34405;SDS011;20658;45.630;8.886;2022-07-22T01:04:36;18.75;;;11.07;;
34405;SDS011;20658;45.630;8.886;2022-07-22T01:07:14;17.45;;;11.43;;
34405;SDS011;20658;45.630;8.886;2022-07-22T01:09:47;22.00;;;11.70;;
34405;SDS011;20658;45.630;8.886;2022-07-22T01:12:21;25.35;;;12.55;;
34405;SDS011;20658;45.630;8.886;2022-07-22T01:14:54;19.38;;;11.43;;
34405;SDS011;20658;45.630;8.886;2022-07-22T01:17:27;19.17;;;10.43;;
34405;SDS011;20658;45.630;8.886;2022-07-22T01:20:04;17.13;;;10.80;;
34405;SDS011;20658;45.630;8.886;2022-07-22T01:22:39;17.80;;;10.68;;
34405;SDS011;20658;45.630;8.886;2022-07-22T01:25:12;17.00;;;10.73;;
34405;SDS011;20658;45.630;8.886;2022-07-22T01:27:46;20.52;;;10.68;;
34405;SDS011;20658;45.630;8.886;2022-07-22T01:30:20;19.30;;;9.85;;
34405;SDS011;20658;45.630;8.886;2022-07-22T01:32:53;20.75;;;10.43;;
34405;SDS011;20658;45.630;8.886;2022-07-22T01:35:28;17.27;;;10.75;;
34405;SDS011;20658;45.630;8.886;2022-07-22T01:38:02;23.75;;;10.38;;
34405;SDS011;20658;45.630;8.886;2022-07-22T01:40:36;17.58;;;10.77;;
34405;SDS011;20658;45.630;8.886;2022-07-22T01:43:09;16.67;;;10.63;;
34405;SDS011;20658;45.630;8.886;2022-07-22T01:45:47;18.85;;;9.52;;
34405;SDS011;20658;45.630;8.886;2022-07-22T01:48:23;20.95;;;9.57;;
34405;SDS011;20658;45.630;8.886;2022-07-22T01:50:58;17.27;;;10.18;;
34405;SDS011;20658;45.630;8.886;2022-07-22T01:53:27;17.45;;;10.73;;
34405;SDS011;20658;45.630;8.886;2022-07-22T01:56:01;20.42;;;10.50;;
34405;SDS011;20658;45.630;8.886;2022-07-22T01:58:43;18.70;;;9.55;;
34405;SDS011;20658;45.630;8.886;2022-07-22T02:01:22;17.80;;;10.18;;
34405;SDS011;20658;45.630;8.886;2022-07-22T02:03:56;17.92;;;9.82;;
34405;SDS011;20658;45.630;8.886;2022-07-22T02:06:31;19.45;;;11.23;;
34405;SDS011;20658;45.630;8.886;2022-07-22T02:09:05;14.82;;;10.35;;
34405;SDS011;20658;45.630;8.886;2022-07-22T02:11:42;20.00;;;11.15;;
34405;SDS011;20658;45.630;8.886;2022-07-22T02:14:16;18.50;;;11.73;;
34405;SDS011;20658;45.630;8.886;2022-07-22T02:16:49;25.40;;;11.13;;
34405;SDS011;20658;45.630;8.886;2022-07-22T02:19:23;18.30;;;11.00;;
34405;SDS011;20658;45.630;8.886;2022-07-22T02:21:58;18.80;;;11.27;;
34405;SDS011;20658;45.630;8.886;2022-07-22T02:24:32;19.95;;;12.05;;
34405;SDS011;20658;45.630;8.886;2022-07-22T02:27:06;20.85;;;10.88;;
34405;SDS011;20658;45.630;8.886;2022-07-22T02:29:41;21.52;;;12.00;;
34405;SDS011;20658;45.630;8.886;2022-07-22T02:32:14;17.90;;;10.23;;
34405;SDS011;20658;45.630;8.886;2022-07-22T02:34:48;18.95;;;11.15;;
34405;SDS011;20658;45.630;8.886;2022-07-22T02:37:23;18.48;;;10.02;;
34405;SDS011;20658;45.630;8.886;2022-07-22T02:39:57;21.05;;;11.10;;
34405;SDS011;20658;45.630;8.886;2022-07-22T02:42:30;19.42;;;10.32;;
34405;SDS011;20658;45.630;8.886;2022-07-22T02:45:04;19.15;;;10.82;;
34405;SDS011;20658;45.630;8.886;2022-07-22T02:47:47;18.02;;;10.60;;
34405;SDS011;20658;45.630;8.886;2022-07-22T02:50:23;21.73;;;12.15;;
34405;SDS011;20658;45.630;8.886;2022-07-22T02:52:58;20.00;;;10.88;;
34405;SDS011;20658;45.630;8.886;2022-07-22T02:55:36;24.65;;;12.07;;
34405;SDS011;20658;45.630;8.886;2022-07-22T02:58:10;18.52;;;11.02;;
34405;SDS011;20658;45.630;8.886;2022-07-22T03:00:44;23.98;;;11.55;;
34405;SDS011;20658;45.630;8.886;2022-07-22T03:03:18;18.80;;;10.65;;
34405;SDS011;20658;45.630;8.886;2022-07-22T03:05:53;16.58;;;10.82;;
34405;SDS011;20658;45.630;8.886;2022-07-22T03:08:37;18.30;;;10.57;;
34405;SDS011;20658;45.630;8.886;2022-07-22T03:11:12;18.92;;;11.07;;
34405;SDS011;20658;45.630;8.886;2022-07-22T03:13:46;21.52;;;11.93;;
34405;SDS011;20658;45.630;8.886;2022-07-22T03:16:19;15.85;;;10.25;;
34405;SDS011;20658;45.630;8.886;2022-07-22T03:18:54;21.25;;;10.35;;
34405;SDS011;20658;45.630;8.886;2022-07-22T03:21:23;16.85;;;11.25;;
34405;SDS011;20658;45.630;8.886;2022-07-22T03:23:54;20.23;;;10.65;;
34405;SDS011;20658;45.630;8.886;2022-07-22T03:26:27;21.05;;;10.20;;
34405;SDS011;20658;45.630;8.886;2022-07-22T03:29:01;18.58;;;10.95;;
34405;SDS011;20658;45.630;8.886;2022-07-22T03:31:34;21.88;;;11.07;;
34405;SDS011;20658;45.630;8.886;2022-07-22T03:34:08;21.65;;;11.88;;
34405;SDS011;20658;45.630;8.886;2022-07-22T03:36:51;18.70;;;11.10;;
34405;SDS011;20658;45.630;8.886;2022-07-22T03:39:26;20.60;;;11.27;;
34405;SDS011;20658;45.630;8.886;2022-07-22T03:41:59;17.98;;;11.00;;
34405;SDS011;20658;45.630;8.886;2022-07-22T03:44:41;22.08;;;10.98;;
34405;SDS011;20658;45.630;8.886;2022-07-22T03:47:17;20.17;;;11.00;;
34405;SDS011;20658;45.630;8.886;2022-07-22T03:49:51;19.63;;;11.00;;
34405;SDS011;20658;45.630;8.886;2022-07-22T03:52:25;18.77;;;10.68;;
34405;SDS011;20658;45.630;8.886;2022-07-22T03:55:03;22.23;;;11.45;;
34405;SDS011;20658;45.630;8.886;2022-07-22T03:57:40;19.27;;;10.75;;
34405;SDS011;20658;45.630;8.886;2022-07-22T04:00:21;19.30;;;10.10;;
34405;SDS011;20658;45.630;8.886;2022-07-22T04:02:56;15.07;;;10.13;;
34405;SDS011;20658;45.630;8.886;2022-07-22T04:05:59;22.17;;;10.82;;
34405;SDS011;20658;45.630;8.886;2022-07-22T04:08:40;18.80;;;9.77;;
34405;SDS011;20658;45.630;8.886;2022-07-22T04:11:15;16.92;;;10.35;;
34405;SDS011;20658;45.630;8.886;2022-07-22T04:13:49;20.75;;;9.77;;
34405;SDS011;20658;45.630;8.886;2022-07-22T04:16:23;14.90;;;10.05;;
34405;SDS011;20658;45.630;8.886;2022-07-22T04:19:05;19.73;;;10.13;;
34405;SDS011;20658;45.630;8.886;2022-07-22T04:21:50;17.60;;;10.35;;
34405;SDS011;20658;45.630;8.886;2022-07-22T04:24:27;20.27;;;10.63;;
34405;SDS011;20658;45.630;8.886;2022-07-22T04:27:02;20.35;;;10.68;;
34405;SDS011;20658;45.630;8.886;2022-07-22T04:29:36;25.48;;;12.30;;
34405;SDS011;20658;45.630;8.886;2022-07-22T04:32:09;26.17;;;13.15;;
34405;SDS011;20658;45.630;8.886;2022-07-22T04:34:43;24.27;;;12.73;;
34405;SDS011;20658;45.630;8.886;2022-07-22T04:37:17;22.05;;;11.98;;
34405;SDS011;20658;45.630;8.886;2022-07-22T04:39:50;19.85;;;11.30;;
34405;SDS011;20658;45.630;8.886;2022-07-22T04:42:25;23.08;;;11.45;;
34405;SDS011;20658;45.630;8.886;2022-07-22T04:44:59;20.17;;;11.85;;
34405;SDS011;20658;45.630;8.886;2022-07-22T04:47:32;24.30;;;12.13;;
34405;SDS011;20658;45.630;8.886;2022-07-22T04:50:06;22.60;;;10.32;;
34405;SDS011;20658;45.630;8.886;2022-07-22T04:52:41;22.83;;;10.30;;
34405;SDS011;20658;45.630;8.886;2022-07-22T04:55:14;16.60;;;9.57;;
34405;SDS011;20658;45.630;8.886;2022-07-22T04:57:49;15.70;;;9.82;;
34405;SDS011;20658;45.630;8.886;2022-07-22T05:00:23;19.40;;;9.98;;
34405;SDS011;20658;45.630;8.886;2022-07-22T05:02:57;18.42;;;9.90;;
34405;SDS011;20658;45.630;8.886;2022-07-22T05:05:30;16.90;;;9.88;;
34405;SDS011;20658;45.630;8.886;2022-07-22T05:08:04;20.10;;;10.25;;
34405;SDS011;20658;45.630;8.886;2022-07-22T05:10:39;21.70;;;10.35;;
34405;SDS011;20658;45.630;8.886;2022-07-22T05:13:14;19.63;;;10.93;;
34405;SDS011;20658;45.630;8.886;2022-07-22T05:15:47;17.48;;;10.85;;
34405;SDS011;20658;45.630;8.886;2022-07-22T05:18:21;25.25;;;11.27;;
34405;SDS011;20658;45.630;8.886;2022-07-22T05:20:54;21.02;;;11.02;;
34405;SDS011;20658;45.630;8.886;2022-07-22T05:23:27;23.63;;;11.32;;
34405;SDS011;20658;45.630;8.886;2022-07-22T05:26:01;26.10;;;11.57;;
34405;SDS011;20658;45.630;8.886;2022-07-22T05:28:38;16.08;;;10.60;;
34405;SDS011;20658;45.630;8.886;2022-07-22T05:31:11;24.63;;;11.02;;
34405;SDS011;20658;45.630;8.886;2022-07-22T05:33:45;17.08;;;10.90;;
34405;SDS011;20658;45.630;8.886;2022-07-22T05:36:24;21.42;;;10.23;;
34405;SDS011;20658;45.630;8.886;2022-07-22T05:38:58;23.35;;;10.50;;
34405;SDS011;20658;45.630;8.886;2022-07-22T05:41:31;18.80;;;10.45;;
34405;SDS011;20658;45.630;8.886;2022-07-22T05:44:07;17.60;;;10.38;;
34405;SDS011;20658;45.630;8.886;2022-07-22T05:46:41;19.67;;;9.75;;
34405;SDS011;20658;45.630;8.886;2022-07-22T05:49:15;16.30;;;9.82;;
34405;SDS011;20658;45.630;8.886;2022-07-22T05:51:54;17.52;;;9.05;;
34405;SDS011;20658;45.630;8.886;2022-07-22T05:54:31;17.90;;;9.70;;
34405;SDS011;20658;45.630;8.886;2022-07-22T05:57:05;19.17;;;9.77;;
34405;SDS011;20658;45.630;8.886;2022-07-22T05:59:43;19.20;;;10.07;;
34405;SDS011;20658;45.630;8.886;2022-07-22T06:02:16;19.50;;;9.95;;
34405;SDS011;20658;45.630;8.886;2022-07-22T06:04:50;19.55;;;9.77;;
34405;SDS011;20658;45.630;8.886;2022-07-22T06:07:24;19.55;;;9.10;;
34405;SDS011;20658;45.630;8.886;2022-07-22T06:10:00;20.90;;;9.57;;
34405;SDS011;20658;45.630;8.886;2022-07-22T06:12:36;21.98;;;10.20;;
34405;SDS011;20658;45.630;8.886;2022-07-22T06:15:11;22.45;;;10.60;;
34405;SDS011;20658;45.630;8.886;2022-07-22T06:17:45;22.73;;;10.07;;
34405;SDS011;20658;45.630;8.886;2022-07-22T06:20:19;15.88;;;8.32;;
34405;SDS011;20658;45.630;8.886;2022-07-22T06:22:53;23.15;;;8.40;;
34405;SDS011;20658;45.630;8.886;2022-07-22T06:25:27;19.70;;;8.88;;
34405;SDS011;20658;45.630;8.886;2022-07-22T06:28:00;17.00;;;9.27;;
34405;SDS011;20658;45.630;8.886;2022-07-22T06:30:35;16.85;;;9.90;;
34405;SDS011;20658;45.630;8.886;2022-07-22T06:33:11;21.38;;;9.45;;
34405;SDS011;20658;45.630;8.886;2022-07-22T06:35:44;21.75;;;8.68;;
34405;SDS011;20658;45.630;8.886;2022-07-22T06:38:18;17.60;;;8.13;;
34405;SDS011;20658;45.630;8.886;2022-07-22T06:41:12;17.27;;;8.15;;
34405;SDS011;20658;45.630;8.886;2022-07-22T06:44:03;18.55;;;8.40;;
34405;SDS011;20658;45.630;8.886;2022-07-22T06:47:01;15.68;;;7.18;;
34405;SDS011;20658;45.630;8.886;2022-07-22T06:49:37;13.32;;;6.80;;
34405;SDS011;20658;45.630;8.886;2022-07-22T06:52:10;17.45;;;5.88;;
34405;SDS011;20658;45.630;8.886;2022-07-22T06:54:44;11.95;;;6.18;;
34405;SDS011;20658;45.630;8.886;2022-07-22T06:57:21;17.48;;;6.63;;
34405;SDS011;20658;45.630;8.886;2022-07-22T06:59:55;13.48;;;5.93;;
34405;SDS011;20658;45.630;8.886;2022-07-22T07:02:30;15.13;;;6.88;;
34405;SDS011;20658;45.630;8.886;2022-07-22T07:05:03;15.52;;;6.03;;
34405;SDS011;20658;45.630;8.886;2022-07-22T07:07:38;16.10;;;6.30;;
34405;SDS011;20658;45.630;8.886;2022-07-22T07:10:11;21.27;;;6.13;;
34405;SDS011;20658;45.630;8.886;2022-07-22T07:15:44;14.95;;;6.78;;
34405;SDS011;20658;45.630;8.886;2022-07-22T07:18:19;12.48;;;5.75;;
34405;SDS011;20658;45.630;8.886;2022-07-22T07:20:52;15.55;;;6.03;;
34405;SDS011;20658;45.630;8.886;2022-07-22T07:23:28;15.43;;;6.43;;
34405;SDS011;20658;45.630;8.886;2022-07-22T07:26:02;14.95;;;5.95;;
34405;SDS011;20658;45.630;8.886;2022-07-22T07:28:36;15.50;;;6.22;;
34405;SDS011;20658;45.630;8.886;2022-07-22T07:31:16;13.43;;;5.00;;
34405;SDS011;20658;45.630;8.886;2022-07-22T07:33:53;13.88;;;6.10;;
34405;SDS011;20658;45.630;8.886;2022-07-22T07:36:26;17.15;;;6.65;;
34405;SDS011;20658;45.630;8.886;2022-07-22T07:38:55;14.35;;;5.97;;
34405;SDS011;20658;45.630;8.886;2022-07-22T07:41:29;16.00;;;6.35;;
34405;SDS011;20658;45.630;8.886;2022-07-22T07:44:02;14.48;;;6.20;;
34405;SDS011;20658;45.630;8.886;2022-07-22T07:46:36;13.85;;;6.13;;
34405;SDS011;20658;45.630;8.886;2022-07-22T07:49:11;16.00;;;5.43;;
34405;SDS011;20658;45.630;8.886;2022-07-22T07:51:44;15.15;;;6.03;;
34405;SDS011;20658;45.630;8.886;2022-07-22T07:54:18;16.23;;;5.10;;
34405;SDS011;20658;45.630;8.886;2022-07-22T07:56:53;12.65;;;5.45;;
34405;SDS011;20658;45.630;8.886;2022-07-22T07:59:26;12.65;;;5.20;;
34405;SDS011;20658;45.630;8.886;2022-07-22T08:02:01;17.60;;;5.97;;
34405;SDS011;20658;45.630;8.886;2022-07-22T08:04:37;14.30;;;5.93;;
34405;SDS011;20658;45.630;8.886;2022-07-22T08:07:14;20.60;;;6.00;;
34405;SDS011;20658;45.630;8.886;2022-07-22T08:09:49;15.63;;;5.50;;
34405;SDS011;20658;45.630;8.886;2022-07-22T08:12:47;14.68;;;5.45;;
34405;SDS011;20658;45.630;8.886;2022-07-22T08:18:52;9.95;;;5.00;;
34405;SDS011;20658;45.630;8.886;2022-07-22T08:21:27;14.30;;;5.60;;
34405;SDS011;20658;45.630;8.886;2022-07-22T08:24:15;15.27;;;5.38;;
34405;SDS011;20658;45.630;8.886;2022-07-22T08:26:49;15.65;;;5.32;;
34405;SDS011;20658;45.630;8.886;2022-07-22T08:29:22;12.32;;;5.35;;
34405;SDS011;20658;45.630;8.886;2022-07-22T08:31:56;15.05;;;5.50;;
34405;SDS011;20658;45.630;8.886;2022-07-22T08:34:30;12.85;;;5.35;;
34405;SDS011;20658;45.630;8.886;2022-07-22T08:37:06;14.57;;;5.05;;
34405;SDS011;20658;45.630;8.886;2022-07-22T08:39:39;10.55;;;5.28;;
34405;SDS011;20658;45.630;8.886;2022-07-22T08:42:13;14.07;;;4.82;;
34405;SDS011;20658;45.630;8.886;2022-07-22T08:44:46;15.95;;;5.82;;
34405;SDS011;20658;45.630;8.886;2022-07-22T08:47:21;13.98;;;5.20;;
34405;SDS011;20658;45.630;8.886;2022-07-22T08:50:24;10.57;;;5.10;;
34405;SDS011;20658;45.630;8.886;2022-07-22T08:53:09;15.23;;;5.10;;
34405;SDS011;20658;45.630;8.886;2022-07-22T08:55:45;13.23;;;5.07;;
34405;SDS011;20658;45.630;8.886;2022-07-22T08:58:21;20.65;;;5.10;;
34405;SDS011;20658;45.630;8.886;2022-07-22T09:01:04;14.93;;;4.65;;
34405;SDS011;20658;45.630;8.886;2022-07-22T09:03:48;12.63;;;5.28;;
34405;SDS011;20658;45.630;8.886;2022-07-22T09:06:28;12.00;;;5.07;;
34405;SDS011;20658;45.630;8.886;2022-07-22T09:09:07;19.90;;;6.00;;
34405;SDS011;20658;45.630;8.886;2022-07-22T09:12:08;13.52;;;5.45;;
34405;SDS011;20658;45.630;8.886;2022-07-22T09:14:59;20.00;;;4.93;;
34405;SDS011;20658;45.630;8.886;2022-07-22T09:18:03;17.33;;;5.50;;
34405;SDS011;20658;45.630;8.886;2022-07-22T09:20:59;14.05;;;5.03;;
34405;SDS011;20658;45.630;8.886;2022-07-22T09:23:57;15.38;;;5.53;;
34405;SDS011;20658;45.630;8.886;2022-07-22T09:26:33;12.63;;;5.40;;
34405;SDS011;20658;45.630;8.886;2022-07-22T09:29:48;15.00;;;5.43;;
34405;SDS011;20658;45.630;8.886;2022-07-22T09:32:28;17.83;;;5.40;;
34405;SDS011;20658;45.630;8.886;2022-07-22T09:35:35;16.08;;;5.85;;
34405;SDS011;20658;45.630;8.886;2022-07-22T09:38:10;15.25;;;5.22;;
34405;SDS011;20658;45.630;8.886;2022-07-22T09:40:45;18.70;;;5.50;;
34405;SDS011;20658;45.630;8.886;2022-07-22T09:43:21;21.38;;;5.28;;
34405;SDS011;20658;45.630;8.886;2022-07-22T09:45:56;10.32;;;5.00;;
34405;SDS011;20658;45.630;8.886;2022-07-22T09:48:50;12.88;;;5.63;;
34405;SDS011;20658;45.630;8.886;2022-07-22T09:51:39;12.95;;;5.68;;
34405;SDS011;20658;45.630;8.886;2022-07-22T09:54:19;15.07;;;5.05;;
34405;SDS011;20658;45.630;8.886;2022-07-22T09:56:53;14.65;;;5.50;;
34405;SDS011;20658;45.630;8.886;2022-07-22T09:59:28;23.65;;;5.95;;
34405;SDS011;20658;45.630;8.886;2022-07-22T10:02:19;8.27;;;4.55;;
34405;SDS011;20658;45.630;8.886;2022-07-22T10:04:53;12.70;;;4.50;;
34405;SDS011;20658;45.630;8.886;2022-07-22T10:07:29;14.20;;;5.57;;
34405;SDS011;20658;45.630;8.886;2022-07-22T10:10:03;12.18;;;4.72;;
34405;SDS011;20658;45.630;8.886;2022-07-22T10:12:38;10.15;;;4.22;;
34405;SDS011;20658;45.630;8.886;2022-07-22T10:15:11;12.65;;;4.65;;
34405;SDS011;20658;45.630;8.886;2022-07-22T10:17:46;8.68;;;4.03;;
34405;SDS011;20658;45.630;8.886;2022-07-22T10:20:21;9.18;;;4.20;;
34405;SDS011;20658;45.630;8.886;2022-07-22T10:22:57;13.32;;;5.00;;
34405;SDS011;20658;45.630;8.886;2022-07-22T10:25:47;11.82;;;3.92;;
34405;SDS011;20658;45.630;8.886;2022-07-22T10:28:27;13.13;;;6.25;;
34405;SDS011;20658;45.630;8.886;2022-07-22T10:31:20;10.75;;;4.60;;
34405;SDS011;20658;45.630;8.886;2022-07-22T10:33:56;11.88;;;4.47;;
34405;SDS011;20658;45.630;8.886;2022-07-22T10:36:30;13.20;;;4.32;;
34405;SDS011;20658;45.630;8.886;2022-07-22T10:39:06;14.07;;;4.50;;
34405;SDS011;20658;45.630;8.886;2022-07-22T10:41:42;11.70;;;4.28;;
34405;SDS011;20658;45.630;8.886;2022-07-22T10:44:23;12.05;;;4.35;;
34405;SDS011;20658;45.630;8.886;2022-07-22T10:50:44;11.38;;;5.07;;
34405;SDS011;20658;45.630;8.886;2022-07-22T10:53:23;17.70;;;5.38;;
34405;SDS011;20658;45.630;8.886;2022-07-22T10:56:05;19.92;;;4.88;;
34405;SDS011;20658;45.630;8.886;2022-07-22T10:58:49;8.60;;;4.22;;
34405;SDS011;20658;45.630;8.886;2022-07-22T11:01:28;12.18;;;4.18;;
34405;SDS011;20658;45.630;8.886;2022-07-22T11:04:07;11.85;;;4.68;;
34405;SDS011;20658;45.630;8.886;2022-07-22T11:06:43;9.68;;;4.47;;
34405;SDS011;20658;45.630;8.886;2022-07-22T11:09:19;11.70;;;4.55;;
34405;SDS011;20658;45.630;8.886;2022-07-22T11:11:55;10.07;;;4.30;;
34405;SDS011;20658;45.630;8.886;2022-07-22T11:14:29;10.43;;;4.38;;
34405;SDS011;20658;45.630;8.886;2022-07-22T11:17:08;11.00;;;5.10;;
34405;SDS011;20658;45.630;8.886;2022-07-22T11:19:45;8.38;;;3.97;;
34405;SDS011;20658;45.630;8.886;2022-07-22T11:22:23;15.65;;;4.20;;
34405;SDS011;20658;45.630;8.886;2022-07-22T11:24:57;7.80;;;4.22;;
34405;SDS011;20658;45.630;8.886;2022-07-22T11:27:33;12.95;;;4.78;;
34405;SDS011;20658;45.630;8.886;2022-07-22T11:30:07;10.93;;;4.53;;
34405;SDS011;20658;45.630;8.886;2022-07-22T11:32:43;7.40;;;4.03;;
34405;SDS011;20658;45.630;8.886;2022-07-22T11:35:18;12.70;;;4.15;;
34405;SDS011;20658;45.630;8.886;2022-07-22T11:37:55;13.93;;;4.15;;
34405;SDS011;20658;45.630;8.886;2022-07-22T11:40:31;7.80;;;3.53;;
34405;SDS011;20658;45.630;8.886;2022-07-22T11:43:05;11.65;;;4.28;;
34405;SDS011;20658;45.630;8.886;2022-07-22T11:45:54;11.32;;;4.13;;
34405;SDS011;20658;45.630;8.886;2022-07-22T11:48:29;14.80;;;4.38;;
34405;SDS011;20658;45.630;8.886;2022-07-22T11:51:03;10.55;;;4.07;;
34405;SDS011;20658;45.630;8.886;2022-07-22T11:53:38;11.20;;;3.95;;
34405;SDS011;20658;45.630;8.886;2022-07-22T11:56:13;10.57;;;4.38;;
34405;SDS011;20658;45.630;8.886;2022-07-22T11:58:48;9.18;;;3.88;;
34405;SDS011;20658;45.630;8.886;2022-07-22T12:01:26;10.55;;;4.00;;
34405;SDS011;20658;45.630;8.886;2022-07-22T12:04:03;10.05;;;4.22;;
34405;SDS011;20658;45.630;8.886;2022-07-22T12:06:40;9.88;;;3.90;;
34405;SDS011;20658;45.630;8.886;2022-07-22T12:09:16;20.75;;;4.95;;
34405;SDS011;20658;45.630;8.886;2022-07-22T12:11:55;10.90;;;4.35;;
34405;SDS011;20658;45.630;8.886;2022-07-22T12:14:30;8.63;;;4.35;;
34405;SDS011;20658;45.630;8.886;2022-07-22T12:17:07;14.73;;;4.13;;
34405;SDS011;20658;45.630;8.886;2022-07-22T12:19:44;16.48;;;4.82;;
34405;SDS011;20658;45.630;8.886;2022-07-22T12:22:19;10.07;;;4.53;;
34405;SDS011;20658;45.630;8.886;2022-07-22T12:24:57;14.90;;;4.70;;
34405;SDS011;20658;45.630;8.886;2022-07-22T12:27:33;12.57;;;4.25;;
34405;SDS011;20658;45.630;8.886;2022-07-22T12:30:11;11.70;;;4.55;;
34405;SDS011;20658;45.630;8.886;2022-07-22T12:32:46;10.88;;;4.05;;
34405;SDS011;20658;45.630;8.886;2022-07-22T12:35:21;16.50;;;3.70;;
34405;SDS011;20658;45.630;8.886;2022-07-22T12:37:55;10.38;;;4.15;;
34405;SDS011;20658;45.630;8.886;2022-07-22T12:40:38;7.07;;;3.80;;
34405;SDS011;20658;45.630;8.886;2022-07-22T12:43:11;10.35;;;4.07;;
34405;SDS011;20658;45.630;8.886;2022-07-22T12:45:45;10.30;;;3.88;;
34405;SDS011;20658;45.630;8.886;2022-07-22T12:48:18;13.30;;;3.90;;
34405;SDS011;20658;45.630;8.886;2022-07-22T12:50:57;11.52;;;4.18;;
34405;SDS011;20658;45.630;8.886;2022-07-22T12:53:31;10.45;;;4.35;;
34405;SDS011;20658;45.630;8.886;2022-07-22T12:56:05;10.90;;;4.20;;
34405;SDS011;20658;45.630;8.886;2022-07-22T12:58:41;7.88;;;4.03;;
34405;SDS011;20658;45.630;8.886;2022-07-22T13:01:15;11.55;;;4.40;;
34405;SDS011;20658;45.630;8.886;2022-07-22T13:03:48;8.00;;;4.22;;
34405;SDS011;20658;45.630;8.886;2022-07-22T13:06:23;11.13;;;4.47;;
34405;SDS011;20658;45.630;8.886;2022-07-22T13:08:56;12.77;;;4.28;;
34405;SDS011;20658;45.630;8.886;2022-07-22T13:11:30;8.75;;;4.30;;
34405;SDS011;20658;45.630;8.886;2022-07-22T13:14:03;19.77;;;3.95;;
34405;SDS011;20658;45.630;8.886;2022-07-22T13:16:37;12.00;;;3.67;;
34405;SDS011;20658;45.630;8.886;2022-07-22T13:19:10;12.38;;;4.20;;
34405;SDS011;20658;45.630;8.886;2022-07-22T13:21:45;12.30;;;3.92;;
34405;SDS011;20658;45.630;8.886;2022-07-22T13:24:18;14.63;;;4.05;;
34405;SDS011;20658;45.630;8.886;2022-07-22T13:26:52;10.88;;;4.05;;
34405;SDS011;20658;45.630;8.886;2022-07-22T13:29:26;12.02;;;4.45;;
34405;SDS011;20658;45.630;8.886;2022-07-22T13:31:59;7.70;;;3.78;;
34405;SDS011;20658;45.630;8.886;2022-07-22T13:34:33;9.68;;;3.95;;
34405;SDS011;20658;45.630;8.886;2022-07-22T13:37:08;11.05;;;3.78;;
34405;SDS011;20658;45.630;8.886;2022-07-22T13:39:42;9.88;;;3.97;;
34405;SDS011;20658;45.630;8.886;2022-07-22T13:42:17;5.18;;;3.30;;
34405;SDS011;20658;45.630;8.886;2022-07-22T13:44:51;11.88;;;4.18;;
34405;SDS011;20658;45.630;8.886;2022-07-22T13:47:26;9.68;;;3.50;;
34405;SDS011;20658;45.630;8.886;2022-07-22T13:49:59;10.73;;;4.30;;
34405;SDS011;20658;45.630;8.886;2022-07-22T13:52:34;6.90;;;3.85;;
34405;SDS011;20658;45.630;8.886;2022-07-22T13:55:08;10.55;;;4.25;;
34405;SDS011;20658;45.630;8.886;2022-07-22T13:57:41;9.20;;;3.67;;
34405;SDS011;20658;45.630;8.886;2022-07-22T14:00:15;9.20;;;4.22;;
34405;SDS011;20658;45.630;8.886;2022-07-22T14:02:49;13.50;;;4.13;;
34405;SDS011;20658;45.630;8.886;2022-07-22T14:05:23;11.85;;;3.95;;
34405;SDS011;20658;45.630;8.886;2022-07-22T14:07:58;10.77;;;4.38;;
34405;SDS011;20658;45.630;8.886;2022-07-22T14:10:32;8.57;;;4.20;;
34405;SDS011;20658;45.630;8.886;2022-07-22T14:13:05;11.95;;;4.57;;
34405;SDS011;20658;45.630;8.886;2022-07-22T14:15:38;7.80;;;4.30;;
34405;SDS011;20658;45.630;8.886;2022-07-22T14:18:12;8.68;;;4.68;;
34405;SDS011;20658;45.630;8.886;2022-07-22T14:20:45;15.25;;;4.32;;
34405;SDS011;20658;45.630;8.886;2022-07-22T14:23:20;12.38;;;4.80;;
34405;SDS011;20658;45.630;8.886;2022-07-22T14:25:54;11.07;;;4.47;;
34405;SDS011;20658;45.630;8.886;2022-07-22T14:28:29;11.07;;;4.13;;
34405;SDS011;20658;45.630;8.886;2022-07-22T14:31:02;15.25;;;4.13;;
34405;SDS011;20658;45.630;8.886;2022-07-22T14:33:36;10.20;;;4.40;;
34405;SDS011;20658;45.630;8.886;2022-07-22T14:36:09;13.70;;;4.40;;
34405;SDS011;20658;45.630;8.886;2022-07-22T14:38:44;20.08;;;5.18;;
34405;SDS011;20658;45.630;8.886;2022-07-22T14:41:18;14.38;;;4.20;;
34405;SDS011;20658;45.630;8.886;2022-07-22T14:43:52;16.27;;;4.05;;
34405;SDS011;20658;45.630;8.886;2022-07-22T14:46:25;9.82;;;4.22;;
34405;SDS011;20658;45.630;8.886;2022-07-22T14:48:59;8.68;;;4.20;;
34405;SDS011;20658;45.630;8.886;2022-07-22T14:51:32;9.45;;;4.35;;
34405;SDS011;20658;45.630;8.886;2022-07-22T14:54:07;11.70;;;4.15;;
34405;SDS011;20658;45.630;8.886;2022-07-22T14:56:42;11.25;;;3.90;;
34405;SDS011;20658;45.630;8.886;2022-07-22T14:59:16;19.98;;;5.25;;
34405;SDS011;20658;45.630;8.886;2022-07-22T15:01:49;10.32;;;3.83;;
34405;SDS011;20658;45.630;8.886;2022-07-22T15:04:22;10.02;;;4.25;;
34405;SDS011;20658;45.630;8.886;2022-07-22T15:06:56;10.38;;;4.00;;
34405;SDS011;20658;45.630;8.886;2022-07-22T15:09:31;9.77;;;4.28;;
34405;SDS011;20658;45.630;8.886;2022-07-22T15:12:04;11.40;;;4.72;;
34405;SDS011;20658;45.630;8.886;2022-07-22T15:14:38;12.85;;;4.25;;
34405;SDS011;20658;45.630;8.886;2022-07-22T15:17:12;14.15;;;4.28;;
34405;SDS011;20658;45.630;8.886;2022-07-22T15:19:45;8.65;;;3.97;;
34405;SDS011;20658;45.630;8.886;2022-07-22T15:22:19;11.77;;;4.28;;
34405;SDS011;20658;45.630;8.886;2022-07-22T15:24:54;8.05;;;3.65;;
34405;SDS011;20658;45.630;8.886;2022-07-22T15:27:28;7.07;;;3.38;;
34405;SDS011;20658;45.630;8.886;2022-07-22T15:30:01;11.15;;;3.83;;
34405;SDS011;20658;45.630;8.886;2022-07-22T15:32:36;13.77;;;3.85;;